Time;durP1;ratioP1;P1;durP2;ratioP2;P2;SDS_P1;SDS_P2;PMS_P1;PMS_P2;Temp;Humidity;BMP_temperature;BMP_pressure;BME280_temperature;BME280_humidity;BME280_pressure;Samples;Min_cycle;Max_cycle;Signal;HPM_P1;HPM_P2
2021/12/28 00:01:07;;;;;;;7.00;5.27;;;;;;;;;;5016331;28;20800;-51
2021/12/28 00:03:34;;;;;;;6.30;5.27;;;;;;;;;;5015870;28;20420;-51
2021/12/28 00:06:00;;;;;;;6.67;5.50;;;;;;;;;;5016520;28;20763;-51
2021/12/28 00:08:26;;;;;;;6.30;5.07;;;;;;;;;;5015862;28;20442;-51
2021/12/28 00:10:55;;;;;;;10.03;6.10;;;;;;;;;;5016725;28;20500;-50
2021/12/28 00:13:21;;;;;;;6.73;4.73;;;;;;;;;;5016278;28;20454;-50
2021/12/28 00:17:58;;;;;;;5.70;5.10;;;;;;;;;;5016697;28;20457;-50
2021/12/28 00:18:34;;;;;;;5.20;4.70;;;;;;;;;;5009024;28;20445;-50
2021/12/28 00:21:05;;;;;;;9.97;5.47;;;;;;;;;;5017268;28;20473;-52
2021/12/28 00:23:41;;;;;;;4.93;4.50;;;;;;;;;;5016907;28;20398;-50
2021/12/28 00:26:11;;;;;;;5.30;4.80;;;;;;;;;;5015918;28;20810;-51
2021/12/28 00:28:37;;;;;;;4.70;4.20;;;;;;;;;;5014954;28;20437;-51
2021/12/28 00:31:04;;;;;;;5.33;4.40;;;;;;;;;;5016688;28;20417;-50
2021/12/28 00:33:30;;;;;;;6.80;5.10;;;;;;;;;;5015442;28;20821;-49
2021/12/28 00:35:56;;;;;;;4.73;4.30;;;;;;;;;;5015938;28;20894;-50
2021/12/28 00:38:24;;;;;;;7.67;5.10;;;;;;;;;;5015756;28;20426;-53
2021/12/28 00:40:51;;;;;;;6.30;5.30;;;;;;;;;;5016365;28;20445;-53
2021/12/28 00:43:17;;;;;;;5.70;4.60;;;;;;;;;;5016319;28;20445;-51
2021/12/28 00:45:43;;;;;;;5.60;4.60;;;;;;;;;;5016526;28;20430;-52
2021/12/28 00:48:09;;;;;;;4.83;4.00;;;;;;;;;;5015923;28;20513;-51
2021/12/28 00:50:36;;;;;;;7.13;4.53;;;;;;;;;;5016311;28;20497;-51
2021/12/28 00:53:03;;;;;;;5.63;4.83;;;;;;;;;;5016009;28;20409;-54
2021/12/28 00:55:29;;;;;;;8.77;5.00;;;;;;;;;;5017037;28;20454;-52
2021/12/28 00:57:54;;;;;;;5.00;4.27;;;;;;;;;;5016726;28;20941;-53
2021/12/28 01:00:22;;;;;;;4.53;4.13;;;;;;;;;;5016891;28;20404;-50
2021/12/28 01:02:49;;;;;;;5.17;4.37;;;;;;;;;;5016054;28;20891;-49
2021/12/28 01:05:15;;;;;;;8.53;4.97;;;;;;;;;;5015537;28;20936;-50
2021/12/28 01:07:42;;;;;;;5.03;4.53;;;;;;;;;;5015897;28;20434;-51
2021/12/28 01:10:11;;;;;;;7.40;5.00;;;;;;;;;;5015942;28;20823;-51
2021/12/28 01:12:37;;;;;;;7.00;4.67;;;;;;;;;;5016079;28;20403;-50
2021/12/28 01:15:06;;;;;;;5.13;4.27;;;;;;;;;;5015842;28;20461;-50
2021/12/28 01:17:32;;;;;;;5.07;4.33;;;;;;;;;;5015474;28;20802;-51
2021/12/28 01:19:58;;;;;;;6.53;4.20;;;;;;;;;;5016080;28;20400;-50
2021/12/28 01:22:24;;;;;;;8.03;3.87;;;;;;;;;;5016126;28;20401;-50
2021/12/28 01:24:50;;;;;;;10.80;4.27;;;;;;;;;;5014858;28;20404;-49
2021/12/28 01:27:16;;;;;;;8.57;4.10;;;;;;;;;;5015227;28;20947;-49
2021/12/28 01:29:42;;;;;;;8.40;3.93;;;;;;;;;;5015424;28;20410;-50
2021/12/28 01:32:08;;;;;;;6.63;4.37;;;;;;;;;;5015777;28;20406;-50
2021/12/28 01:34:34;;;;;;;10.57;4.60;;;;;;;;;;5015318;28;20457;-51
2021/12/28 01:37:00;;;;;;;10.77;4.20;;;;;;;;;;5015422;28;20510;-49
2021/12/28 01:39:26;;;;;;;7.40;3.83;;;;;;;;;;5015684;28;20426;-49
2021/12/28 01:41:52;;;;;;;9.93;4.03;;;;;;;;;;5015240;28;20703;-51
2021/12/28 01:44:18;;;;;;;7.57;4.10;;;;;;;;;;5015558;28;20423;-51
2021/12/28 01:46:44;;;;;;;13.10;3.57;;;;;;;;;;5014785;28;20411;-49
2021/12/28 01:49:11;;;;;;;8.93;4.10;;;;;;;;;;5016024;28;20431;-50
2021/12/28 01:51:37;;;;;;;8.17;3.17;;;;;;;;;;5015951;28;20493;-50
2021/12/28 01:54:04;;;;;;;10.03;3.53;;;;;;;;;;5015806;28;20459;-50
2021/12/28 01:56:32;;;;;;;4.03;2.80;;;;;;;;;;5015191;28;20456;-48
2021/12/28 01:58:58;;;;;;;8.30;4.47;;;;;;;;;;5015786;28;20836;-49
2021/12/28 02:01:25;;;;;;;6.00;3.00;;;;;;;;;;5015741;28;20487;-50
2021/12/28 02:03:51;;;;;;;5.70;3.13;;;;;;;;;;5014996;28;20484;-50
2021/12/28 02:06:17;;;;;;;6.80;4.30;;;;;;;;;;5015700;28;20497;-49
2021/12/28 02:08:44;;;;;;;7.13;3.70;;;;;;;;;;5016626;28;20430;-50
2021/12/28 02:11:12;;;;;;;11.63;3.27;;;;;;;;;;5016037;28;20407;-48
2021/12/28 02:13:38;;;;;;;6.40;3.23;;;;;;;;;;5016108;28;20436;-49
2021/12/28 02:16:04;;;;;;;9.43;4.10;;;;;;;;;;5015905;28;20460;-48
2021/12/28 02:18:31;;;;;;;5.77;3.60;;;;;;;;;;5014242;28;20793;-51
2021/12/28 02:20:57;;;;;;;5.97;3.33;;;;;;;;;;5014560;28;20463;-51
2021/12/28 02:23:23;;;;;;;10.60;3.90;;;;;;;;;;5014892;28;20414;-49
2021/12/28 02:25:50;;;;;;;13.70;3.47;;;;;;;;;;5014771;28;20410;-49
2021/12/28 02:28:16;;;;;;;14.53;4.00;;;;;;;;;;5013765;28;20957;-50
2021/12/28 02:30:44;;;;;;;12.97;3.73;;;;;;;;;;5014990;28;20421;-48
2021/12/28 02:33:10;;;;;;;9.50;3.70;;;;;;;;;;5015010;28;20421;-52
2021/12/28 02:35:36;;;;;;;10.87;3.73;;;;;;;;;;5014884;28;20452;-50
2021/12/28 02:38:03;;;;;;;6.30;3.20;;;;;;;;;;5014084;28;20498;-50
2021/12/28 02:40:31;;;;;;;12.80;3.10;;;;;;;;;;5014421;28;20924;-50
2021/12/28 02:42:58;;;;;;;9.60;3.63;;;;;;;;;;5014054;28;20409;-51
2021/12/28 02:45:29;;;;;;;18.30;4.23;;;;;;;;;;5014185;28;20438;-51
2021/12/28 02:47:55;;;;;;;7.93;3.50;;;;;;;;;;5014016;28;20496;-49
2021/12/28 02:50:23;;;;;;;7.57;3.17;;;;;;;;;;5014488;28;20406;-49
2021/12/28 02:52:49;;;;;;;16.57;3.80;;;;;;;;;;5014480;28;20405;-49
2021/12/28 02:55:17;;;;;;;10.10;3.40;;;;;;;;;;5014548;28;20462;-49
2021/12/28 02:57:50;;;;;;;6.80;3.17;;;;;;;;;;5015653;28;20436;-51
2021/12/28 03:00:29;;;;;;;12.17;3.67;;;;;;;;;;5018035;28;20413;-50
2021/12/28 03:02:55;;;;;;;14.33;3.93;;;;;;;;;;5018420;28;20417;-49
2021/12/28 03:05:21;;;;;;;10.40;3.50;;;;;;;;;;5018215;28;20412;-51
2021/12/28 03:07:47;;;;;;;22.03;4.03;;;;;;;;;;5017867;28;20457;-51
2021/12/28 03:10:13;;;;;;;9.47;3.30;;;;;;;;;;5018132;28;20415;-51
2021/12/28 03:12:39;;;;;;;10.60;3.50;;;;;;;;;;5017692;28;20417;-50
2021/12/28 03:15:05;;;;;;;7.57;3.57;;;;;;;;;;5018002;28;20499;-49
2021/12/28 03:17:31;;;;;;;12.63;3.13;;;;;;;;;;5017216;28;20939;-50
2021/12/28 03:19:57;;;;;;;11.20;3.50;;;;;;;;;;5017635;28;20401;-49
2021/12/28 03:22:23;;;;;;;11.80;3.40;;;;;;;;;;5018055;28;20468;-49
2021/12/28 03:24:49;;;;;;;7.40;3.80;;;;;;;;;;5016681;28;20415;-51
2021/12/28 03:27:15;;;;;;;21.97;3.27;;;;;;;;;;5017313;28;20516;-51
2021/12/28 03:29:41;;;;;;;5.37;3.13;;;;;;;;;;5017650;28;20403;-50
2021/12/28 03:32:07;;;;;;;12.63;3.70;;;;;;;;;;5017247;28;20406;-51
2021/12/28 03:34:33;;;;;;;10.77;2.80;;;;;;;;;;5017342;28;20449;-51
2021/12/28 03:36:59;;;;;;;16.43;3.33;;;;;;;;;;5017279;28;20937;-50
2021/12/28 03:39:25;;;;;;;18.87;4.00;;;;;;;;;;5017362;28;20411;-51
2021/12/28 03:41:51;;;;;;;16.10;3.77;;;;;;;;;;5017919;28;20495;-50
2021/12/28 03:44:17;;;;;;;16.17;3.00;;;;;;;;;;5017305;28;20398;-50
2021/12/28 03:46:43;;;;;;;23.43;4.17;;;;;;;;;;5017151;28;20414;-49
2021/12/28 03:49:09;;;;;;;14.30;3.90;;;;;;;;;;5017142;28;20486;-49
2021/12/28 03:51:35;;;;;;;18.40;4.10;;;;;;;;;;5017280;28;20403;-50
2021/12/28 03:54:01;;;;;;;12.10;3.37;;;;;;;;;;5016687;28;20688;-51
2021/12/28 03:56:27;;;;;;;20.67;4.80;;;;;;;;;;5016317;28;20481;-51
2021/12/28 03:58:53;;;;;;;13.03;3.20;;;;;;;;;;5017025;28;20423;-52
2021/12/28 04:01:21;;;;;;;20.13;3.23;;;;;;;;;;5017398;28;20430;-50
2021/12/28 04:03:47;;;;;;;7.27;2.77;;;;;;;;;;5017376;28;20438;-50
2021/12/28 04:06:13;;;;;;;15.63;3.90;;;;;;;;;;5017209;28;20886;-50
2021/12/28 04:08:41;;;;;;;21.23;3.80;;;;;;;;;;5016509;28;20430;-48
2021/12/28 04:13:50;;;;;;;5.53;2.77;;;;;;;;;;5016742;28;20775;-51
2021/12/28 04:16:16;;;;;;;14.10;2.97;;;;;;;;;;5016537;28;20981;-50
2021/12/28 04:18:42;;;;;;;13.00;3.40;;;;;;;;;;5016535;28;20422;-51
2021/12/28 04:21:09;;;;;;;14.77;3.60;;;;;;;;;;5016302;28;20406;-51
2021/12/28 04:23:35;;;;;;;8.20;2.83;;;;;;;;;;5016222;28;21081;-51
2021/12/28 04:26:02;;;;;;;12.10;2.90;;;;;;;;;;5015792;28;20891;-50
2021/12/28 04:28:28;;;;;;;14.33;4.20;;;;;;;;;;5016497;28;20438;-50
2021/12/28 04:30:54;;;;;;;18.50;3.63;;;;;;;;;;5016510;28;20883;-50
2021/12/28 04:33:20;;;;;;;9.77;3.10;;;;;;;;;;5016656;28;20418;-49
2021/12/28 04:35:47;;;;;;;13.53;3.80;;;;;;;;;;5016482;28;20458;-50
2021/12/28 04:38:13;;;;;;;14.50;3.23;;;;;;;;;;5016113;28;20513;-50
2021/12/28 04:40:39;;;;;;;7.13;2.70;;;;;;;;;;5016257;28;20441;-50
2021/12/28 04:43:06;;;;;;;16.30;2.30;;;;;;;;;;5016710;28;20906;-49
2021/12/28 04:45:32;;;;;;;14.23;4.40;;;;;;;;;;5016273;28;20502;-48
2021/12/28 04:47:58;;;;;;;10.50;4.60;;;;;;;;;;5015951;28;20418;-51
2021/12/28 04:50:24;;;;;;;8.47;2.77;;;;;;;;;;5016355;28;20434;-50
2021/12/28 04:52:52;;;;;;;17.87;3.30;;;;;;;;;;5016451;28;20466;-50
2021/12/28 04:55:18;;;;;;;12.07;4.20;;;;;;;;;;5016202;28;20446;-49
2021/12/28 04:57:45;;;;;;;10.87;3.33;;;;;;;;;;5016155;28;20422;-50
2021/12/28 05:00:13;;;;;;;15.37;4.00;;;;;;;;;;5016700;28;20972;-50
2021/12/28 05:02:39;;;;;;;12.73;3.53;;;;;;;;;;5016818;28;20493;-51
2021/12/28 05:05:06;;;;;;;18.20;3.47;;;;;;;;;;5016754;28;20449;-50
2021/12/28 05:07:31;;;;;;;17.37;3.30;;;;;;;;;;5015890;28;20785;-50
2021/12/28 05:09:58;;;;;;;18.43;4.20;;;;;;;;;;5016957;28;20483;-50
2021/12/28 05:12:25;;;;;;;13.07;3.53;;;;;;;;;;5016364;28;20487;-50
2021/12/28 05:14:51;;;;;;;10.30;3.40;;;;;;;;;;5015442;28;20451;-51
2021/12/28 05:17:17;;;;;;;12.70;3.20;;;;;;;;;;5015626;28;20469;-51
2021/12/28 05:19:43;;;;;;;13.57;4.27;;;;;;;;;;5015197;28;20891;-49
2021/12/28 05:22:09;;;;;;;13.20;3.50;;;;;;;;;;5015618;28;20891;-50
2021/12/28 05:24:36;;;;;;;15.90;4.27;;;;;;;;;;5015546;28;20795;-50
2021/12/28 05:27:02;;;;;;;7.03;3.20;;;;;;;;;;5015193;28;20891;-49
2021/12/28 05:29:28;;;;;;;15.43;3.83;;;;;;;;;;5014880;28;20403;-49
2021/12/28 05:31:54;;;;;;;11.50;3.20;;;;;;;;;;5015514;28;20414;-50
2021/12/28 05:34:20;;;;;;;11.30;3.67;;;;;;;;;;5015535;28;20907;-51
2021/12/28 05:36:46;;;;;;;12.50;3.50;;;;;;;;;;5014832;28;20416;-50
2021/12/28 05:39:12;;;;;;;6.10;3.30;;;;;;;;;;5015497;28;20409;-49
2021/12/28 05:41:39;;;;;;;14.90;4.00;;;;;;;;;;5015363;28;20444;-49
2021/12/28 05:44:05;;;;;;;12.37;4.23;;;;;;;;;;5015410;28;20398;-51
2021/12/28 05:46:31;;;;;;;12.73;4.00;;;;;;;;;;5014228;28;20511;-50
2021/12/28 05:48:57;;;;;;;8.53;3.70;;;;;;;;;;5015680;28;20459;-49
2021/12/28 05:51:23;;;;;;;6.73;3.27;;;;;;;;;;5015204;28;20417;-48
2021/12/28 05:53:49;;;;;;;11.33;4.63;;;;;;;;;;5014417;28;20407;-50
2021/12/28 05:56:15;;;;;;;11.40;4.17;;;;;;;;;;5014990;28;20459;-52
2021/12/28 05:58:42;;;;;;;11.97;3.60;;;;;;;;;;4997310;28;20485;-50
2021/12/28 06:01:08;;;;;;;8.60;4.83;;;;;;;;;;5014092;28;20438;-50
2021/12/28 06:03:34;;;;;;;10.93;3.40;;;;;;;;;;5015596;28;20417;-50
2021/12/28 06:06:00;;;;;;;7.90;3.73;;;;;;;;;;5015641;28;20472;-50
2021/12/28 06:08:26;;;;;;;10.97;3.50;;;;;;;;;;5013721;28;20430;-49
2021/12/28 06:10:52;;;;;;;7.33;3.17;;;;;;;;;;5014803;28;20411;-49
2021/12/28 06:13:18;;;;;;;9.73;3.50;;;;;;;;;;5015377;28;20899;-51
2021/12/28 06:15:44;;;;;;;19.07;4.40;;;;;;;;;;5014679;28;20831;-51
2021/12/28 06:18:10;;;;;;;7.97;3.60;;;;;;;;;;5014664;28;20429;-51
2021/12/28 06:20:36;;;;;;;7.03;3.20;;;;;;;;;;5014262;28;20403;-50
2021/12/28 06:23:02;;;;;;;6.83;3.00;;;;;;;;;;5014853;28;20399;-49
2021/12/28 06:25:28;;;;;;;8.20;3.80;;;;;;;;;;5011969;28;20807;-49
2021/12/28 06:27:54;;;;;;;11.43;3.43;;;;;;;;;;5011580;28;20427;-49
2021/12/28 06:30:20;;;;;;;6.77;3.63;;;;;;;;;;5011867;28;20399;-49
2021/12/28 06:32:46;;;;;;;7.17;3.80;;;;;;;;;;5013218;28;20403;-48
2021/12/28 06:35:14;;;;;;;9.43;3.67;;;;;;;;;;5015262;28;20447;-48
2021/12/28 06:37:40;;;;;;;7.67;3.43;;;;;;;;;;5015102;28;20422;-49
2021/12/28 06:40:08;;;;;;;5.23;3.13;;;;;;;;;;5015268;28;20422;-48
2021/12/28 06:42:34;;;;;;;3.63;3.30;;;;;;;;;;5015362;28;20421;-48
2021/12/28 06:45:00;;;;;;;6.97;3.57;;;;;;;;;;5015367;28;20448;-48
2021/12/28 06:47:26;;;;;;;4.27;3.10;;;;;;;;;;5014903;28;20468;-48
2021/12/28 06:49:52;;;;;;;3.60;3.20;;;;;;;;;;5015112;28;20890;-49
2021/12/28 06:52:18;;;;;;;13.63;3.30;;;;;;;;;;5015304;28;20413;-48
2021/12/28 06:54:44;;;;;;;7.97;3.80;;;;;;;;;;5015240;28;20589;-48
2021/12/28 06:57:11;;;;;;;7.87;3.00;;;;;;;;;;5014882;28;20421;-48
2021/12/28 06:59:38;;;;;;;3.67;2.80;;;;;;;;;;5014027;28;20415;-48
2021/12/28 07:02:04;;;;;;;5.67;3.70;;;;;;;;;;5014164;28;20403;-49
2021/12/28 07:04:31;;;;;;;4.53;3.03;;;;;;;;;;5014238;28;20469;-48
2021/12/28 07:06:57;;;;;;;4.57;2.40;;;;;;;;;;5014091;28;20445;-49
2021/12/28 07:09:23;;;;;;;8.77;3.33;;;;;;;;;;5014721;28;20438;-48
2021/12/28 07:11:49;;;;;;;4.10;3.03;;;;;;;;;;5014823;28;20409;-48
2021/12/28 07:14:14;;;;;;;9.17;3.77;;;;;;;;;;5014280;28;20807;-48
2021/12/28 07:16:40;;;;;;;3.40;2.80;;;;;;;;;;5013907;28;20407;-49
2021/12/28 07:19:10;;;;;;;7.23;3.07;;;;;;;;;;5013838;28;20779;-48
2021/12/28 07:21:36;;;;;;;8.13;2.97;;;;;;;;;;5014598;28;20506;-48
2021/12/28 07:24:03;;;;;;;3.13;2.50;;;;;;;;;;5014474;28;20457;-48
2021/12/28 07:26:29;;;;;;;9.07;2.87;;;;;;;;;;5014258;28;20395;-48
2021/12/28 07:28:55;;;;;;;6.07;2.77;;;;;;;;;;5013995;28;20573;-48
2021/12/28 07:31:20;;;;;;;4.60;2.73;;;;;;;;;;4995801;28;20418;-48
2021/12/28 07:33:46;;;;;;;4.70;2.57;;;;;;;;;;5013372;28;20411;-48
2021/12/28 07:36:12;;;;;;;4.27;2.77;;;;;;;;;;5012952;28;20462;-48
2021/12/28 07:38:40;;;;;;;8.60;3.03;;;;;;;;;;5013507;28;20424;-48
2021/12/28 07:41:06;;;;;;;6.90;2.80;;;;;;;;;;5013357;28;20447;-48
2021/12/28 07:43:32;;;;;;;3.27;2.97;;;;;;;;;;5013073;28;20503;-48
2021/12/28 07:45:58;;;;;;;4.73;2.30;;;;;;;;;;5013753;28;20411;-48
2021/12/28 07:48:24;;;;;;;2.80;2.37;;;;;;;;;;5013497;28;20442;-48
2021/12/28 07:50:50;;;;;;;5.63;2.23;;;;;;;;;;5014066;28;20832;-48
2021/12/28 07:53:16;;;;;;;3.37;2.10;;;;;;;;;;5014071;28;20425;-48
2021/12/28 07:55:42;;;;;;;4.20;2.33;;;;;;;;;;5013897;28;20966;-48
2021/12/28 07:58:08;;;;;;;4.40;2.57;;;;;;;;;;5013588;28;20420;-48
2021/12/28 08:00:33;;;;;;;3.47;2.23;;;;;;;;;;5013540;28;20502;-51
2021/12/28 08:03:01;;;;;;;4.50;2.23;;;;;;;;;;5013799;28;20492;-49
2021/12/28 08:05:27;;;;;;;2.50;2.00;;;;;;;;;;5013752;28;20404;-48
2021/12/28 08:07:53;;;;;;;3.17;2.30;;;;;;;;;;5013259;28;20517;-48
2021/12/28 08:10:21;;;;;;;4.00;2.37;;;;;;;;;;5013474;28;20498;-48
2021/12/28 08:12:47;;;;;;;2.27;2.00;;;;;;;;;;5013602;28;20891;-48
2021/12/28 08:15:13;;;;;;;4.93;1.63;;;;;;;;;;5013319;28;20450;-48
2021/12/28 08:17:39;;;;;;;2.57;2.27;;;;;;;;;;5013119;28;20474;-49
2021/12/28 08:20:06;;;;;;;3.30;2.60;;;;;;;;;;5013488;28;20410;-48
2021/12/28 08:22:32;;;;;;;3.23;2.17;;;;;;;;;;5013317;28;20403;-48
2021/12/28 08:24:59;;;;;;;7.10;2.50;;;;;;;;;;5013406;28;20424;-48
2021/12/28 08:27:25;;;;;;;2.23;2.13;;;;;;;;;;5012972;28;20423;-48
2021/12/28 08:29:51;;;;;;;3.17;2.30;;;;;;;;;;5012980;28;20929;-49
2021/12/28 08:32:17;;;;;;;3.10;1.83;;;;;;;;;;5013288;28;20407;-51
2021/12/28 08:34:43;;;;;;;3.63;2.10;;;;;;;;;;5013311;28;20450;-48
2021/12/28 08:37:09;;;;;;;4.57;1.90;;;;;;;;;;5012496;28;20435;-49
2021/12/28 08:39:36;;;;;;;2.00;1.80;;;;;;;;;;5012997;28;20419;-48
2021/12/28 08:42:02;;;;;;;2.50;1.97;;;;;;;;;;5013182;28;20403;-48
2021/12/28 08:44:28;;;;;;;2.33;2.20;;;;;;;;;;5013068;28;20399;-48
2021/12/28 08:46:54;;;;;;;5.23;2.23;;;;;;;;;;5012684;28;20418;-50
2021/12/28 08:49:20;;;;;;;2.70;2.50;;;;;;;;;;5012914;28;20403;-49
2021/12/28 08:51:46;;;;;;;2.27;2.07;;;;;;;;;;5009643;28;20415;-47
2021/12/28 08:54:12;;;;;;;2.00;1.73;;;;;;;;;;5009915;28;20827;-48
2021/12/28 08:56:38;;;;;;;2.57;2.03;;;;;;;;;;5011764;28;20465;-48
2021/12/28 08:59:04;;;;;;;2.13;1.50;;;;;;;;;;5012781;28;20399;-48
2021/12/28 09:01:30;;;;;;;1.93;1.70;;;;;;;;;;5012881;28;20403;-49
2021/12/28 09:03:56;;;;;;;3.33;1.87;;;;;;;;;;5012817;28;20903;-50
2021/12/28 09:06:23;;;;;;;3.00;1.73;;;;;;;;;;5012579;28;20432;-50
2021/12/28 09:08:49;;;;;;;2.33;1.80;;;;;;;;;;5012314;28;20427;-49
2021/12/28 09:11:15;;;;;;;1.80;1.70;;;;;;;;;;5012499;28;20914;-49
2021/12/28 09:13:41;;;;;;;2.40;2.03;;;;;;;;;;5012375;28;20786;-50
2021/12/28 09:16:07;;;;;;;3.00;2.00;;;;;;;;;;5012355;28;20461;-50
2021/12/28 09:18:33;;;;;;;1.80;1.63;;;;;;;;;;5012001;28;20423;-50
2021/12/28 09:20:59;;;;;;;1.60;1.50;;;;;;;;;;5012339;28;20522;-50
2021/12/28 09:23:26;;;;;;;1.77;1.67;;;;;;;;;;5012395;28;20766;-51
2021/12/28 09:25:52;;;;;;;3.90;1.90;;;;;;;;;;5012210;28;20789;-52
2021/12/28 09:28:17;;;;;;;1.63;1.53;;;;;;;;;;5011910;28;20437;-51
2021/12/28 09:30:44;;;;;;;3.53;1.40;;;;;;;;;;5012212;28;20488;-51
2021/12/28 09:33:10;;;;;;;1.30;1.20;;;;;;;;;;5012100;28;20924;-52
2021/12/28 09:35:37;;;;;;;1.97;1.47;;;;;;;;;;5012019;28;20420;-49
2021/12/28 09:38:03;;;;;;;3.83;2.17;;;;;;;;;;5012270;28;20465;-50
2021/12/28 09:40:30;;;;;;;1.90;1.70;;;;;;;;;;5011857;28;20861;-49
2021/12/28 09:42:56;;;;;;;3.33;1.60;;;;;;;;;;5011960;28;20413;-50
2021/12/28 09:45:22;;;;;;;1.97;1.87;;;;;;;;;;5012061;28;20484;-50
2021/12/28 09:47:48;;;;;;;2.30;1.37;;;;;;;;;;5011746;28;20436;-50
2021/12/28 09:50:16;;;;;;;2.30;1.30;;;;;;;;;;5012051;28;20417;-49
2021/12/28 09:52:42;;;;;;;4.20;1.50;;;;;;;;;;5012025;28;20417;-51
2021/12/28 09:55:09;;;;;;;3.43;1.70;;;;;;;;;;5011950;28;20817;-49
2021/12/28 09:57:36;;;;;;;1.50;1.40;;;;;;;;;;5011634;28;20428;-50
2021/12/28 10:00:02;;;;;;;1.50;1.20;;;;;;;;;;5011962;28;20813;-52
2021/12/28 10:02:28;;;;;;;2.43;1.40;;;;;;;;;;5011937;28;20427;-51
2021/12/28 10:04:54;;;;;;;1.47;1.37;;;;;;;;;;5011917;28;20888;-51
2021/12/28 10:07:25;;;;;;;2.97;1.87;;;;;;;;;;5013974;28;20518;-50
2021/12/28 10:09:51;;;;;;;3.47;1.30;;;;;;;;;;5015802;28;20420;-50
2021/12/28 10:12:28;;;;;;;1.43;1.20;;;;;;;;;;5015765;28;20770;-49
2021/12/28 10:14:54;;;;;;;1.30;1.20;;;;;;;;;;5015757;28;20446;-50
2021/12/28 10:17:23;;;;;;;1.53;1.23;;;;;;;;;;5015476;28;20423;-52
2021/12/28 10:19:49;;;;;;;1.70;1.40;;;;;;;;;;5015454;28;20403;-50
2021/12/28 10:22:23;;;;;;;1.60;1.40;;;;;;;;;;5015717;28;20401;-51
2021/12/28 10:24:51;;;;;;;1.30;1.20;;;;;;;;;;5015033;28;20978;-50
2021/12/28 10:27:18;;;;;;;2.27;1.20;;;;;;;;;;5014979;28;20883;-49
2021/12/28 10:29:45;;;;;;;1.50;1.40;;;;;;;;;;5015430;28;20424;-50
2021/12/28 10:32:27;;;;;;;1.63;1.40;;;;;;;;;;5015367;28;20404;-49
2021/12/28 10:34:58;;;;;;;4.30;1.50;;;;;;;;;;5013986;28;20894;-52
2021/12/28 10:37:26;;;;;;;1.97;1.20;;;;;;;;;;5015217;28;20432;-50
2021/12/28 10:39:56;;;;;;;1.20;1.10;;;;;;;;;;5015060;28;20807;-52
2021/12/28 10:42:37;;;;;;;1.60;1.50;;;;;;;;;;5015239;28;20900;-50
2021/12/28 10:45:05;;;;;;;1.50;1.40;;;;;;;;;;5015176;28;20750;-50
2021/12/28 10:47:31;;;;;;;1.20;1.10;;;;;;;;;;5014453;28;20434;-52
2021/12/28 10:49:59;;;;;;;1.90;1.40;;;;;;;;;;5015177;28;20405;-51
2021/12/28 10:52:30;;;;;;;1.30;1.20;;;;;;;;;;5014980;28;20446;-50
2021/12/28 10:55:17;;;;;;;1.73;1.30;;;;;;;;;;5014894;28;20460;-50
2021/12/28 10:57:43;;;;;;;1.13;1.03;;;;;;;;;;5014496;28;20928;-52
2021/12/28 11:00:28;;;;;;;2.00;1.20;;;;;;;;;;5014906;28;20490;-52
2021/12/28 11:03:16;;;;;;;1.47;1.10;;;;;;;;;;5015574;28;20395;-52
2021/12/28 11:05:44;;;;;;;1.40;1.30;;;;;;;;;;5014893;28;20887;-51
2021/12/28 11:08:10;;;;;;;2.00;1.00;;;;;;;;;;5014904;28;20435;-52
2021/12/28 11:10:40;;;;;;;1.10;1.00;;;;;;;;;;5014871;28;20395;-52
2021/12/28 11:13:06;;;;;;;1.40;1.10;;;;;;;;;;5014779;28;20403;-51
2021/12/28 11:15:37;;;;;;;1.73;1.10;;;;;;;;;;5014630;28;20540;-52
2021/12/28 11:18:21;;;;;;;1.27;1.17;;;;;;;;;;5013491;28;20506;-52
2021/12/28 11:20:47;;;;;;;6.60;1.20;;;;;;;;;;5014398;28;20413;-52
2021/12/28 11:23:14;;;;;;;2.60;1.53;;;;;;;;;;5014489;28;20427;-51
2021/12/28 11:25:40;;;;;;;2.00;1.10;;;;;;;;;;5006599;28;20482;-52
2021/12/28 11:28:23;;;;;;;1.20;1.10;;;;;;;;;;5013352;28;20938;-51
2021/12/28 11:30:57;;;;;;;1.87;1.50;;;;;;;;;;5010479;28;20407;-52
2021/12/28 11:33:23;;;;;;;1.10;1.00;;;;;;;;;;5014475;28;20449;-51
2021/12/28 11:35:49;;;;;;;1.30;1.20;;;;;;;;;;5011240;28;20492;-52
2021/12/28 11:38:16;;;;;;;1.30;1.20;;;;;;;;;;5013190;28;20796;-52
2021/12/28 11:40:43;;;;;;;1.30;1.20;;;;;;;;;;5012561;28;20427;-51
2021/12/28 11:43:10;;;;;;;1.33;1.23;;;;;;;;;;5013689;28;20437;-52
2021/12/28 11:45:36;;;;;;;1.40;1.30;;;;;;;;;;5013756;28;20391;-50
2021/12/28 11:48:03;;;;;;;1.30;1.20;;;;;;;;;;5013412;28;20493;-52
2021/12/28 11:50:29;;;;;;;2.00;1.17;;;;;;;;;;5013916;28;20404;-50
2021/12/28 11:52:55;;;;;;;1.83;1.50;;;;;;;;;;5015670;28;20453;-51
2021/12/28 11:55:21;;;;;;;1.97;1.40;;;;;;;;;;5014668;28;20470;-53
2021/12/28 11:57:51;;;;;;;1.20;1.10;;;;;;;;;;5013977;28;20466;-52
2021/12/28 12:00:19;;;;;;;1.60;1.50;;;;;;;;;;5015034;28;20396;-52
2021/12/28 12:02:48;;;;;;;1.63;1.33;;;;;;;;;;5014832;28;20453;-52
2021/12/28 12:05:21;;;;;;;2.60;1.40;;;;;;;;;;5012636;28;20494;-51
2021/12/28 12:08:02;;;;;;;1.20;1.10;;;;;;;;;;5014380;28;20423;-52
2021/12/28 12:10:32;;;;;;;1.20;1.10;;;;;;;;;;5013725;28;20824;-52
2021/12/28 12:13:19;;;;;;;1.47;1.30;;;;;;;;;;5013682;28;20755;-51
2021/12/28 12:15:46;;;;;;;1.17;1.07;;;;;;;;;;5014174;28;20471;-53
2021/12/28 12:18:14;;;;;;;1.10;1.00;;;;;;;;;;5014220;28;20434;-52
2021/12/28 12:20:45;;;;;;;1.20;1.10;;;;;;;;;;5013508;28;20405;-52
2021/12/28 12:23:12;;;;;;;1.27;1.17;;;;;;;;;;5014282;28;20423;-53
2021/12/28 12:25:49;;;;;;;1.67;1.57;;;;;;;;;;5014843;28;20411;-51
2021/12/28 12:28:19;;;;;;;1.70;1.60;;;;;;;;;;5013367;28;20419;-49
2021/12/28 12:30:55;;;;;;;1.70;1.60;;;;;;;;;;5012779;28;20404;-50
2021/12/28 12:33:21;;;;;;;2.00;1.60;;;;;;;;;;5013201;28;20411;-50
2021/12/28 12:35:59;;;;;;;1.50;1.40;;;;;;;;;;5013201;28;20462;-50
2021/12/28 12:38:25;;;;;;;1.70;1.60;;;;;;;;;;5012484;28;20521;-50
2021/12/28 12:41:01;;;;;;;2.77;1.47;;;;;;;;;;5012850;28;20419;-50
2021/12/28 12:46:20;;;;;;;3.33;1.60;;;;;;;;;;5015557;28;20415;-52
2021/12/28 12:48:45;;;;;;;1.30;1.17;;;;;;;;;;5011770;28;20427;-50
2021/12/28 12:51:18;;;;;;;1.40;1.30;;;;;;;;;;4996460;28;20473;-50
2021/12/28 12:53:45;;;;;;;1.63;1.53;;;;;;;;;;5012544;28;20498;-48
2021/12/28 12:56:12;;;;;;;1.80;1.70;;;;;;;;;;5012465;28;20491;-49
2021/12/28 12:58:39;;;;;;;1.50;1.40;;;;;;;;;;5011078;28;20449;-50
2021/12/28 13:01:05;;;;;;;3.53;1.43;;;;;;;;;;5012389;28;20431;-50
2021/12/28 13:03:33;;;;;;;1.83;1.23;;;;;;;;;;5012493;28;20490;-49
2021/12/28 13:06:00;;;;;;;1.50;1.40;;;;;;;;;;5012557;28;20470;-49
2021/12/28 13:08:26;;;;;;;5.70;2.00;;;;;;;;;;5014493;28;20831;-53
2021/12/28 13:10:52;;;;;;;7.20;2.97;;;;;;;;;;5016364;28;20854;-52
2021/12/28 13:13:18;;;;;;;9.23;1.83;;;;;;;;;;5017707;28;20450;-53
2021/12/28 13:15:44;;;;;;;14.00;2.90;;;;;;;;;;5019011;28;20823;-52
2021/12/28 13:18:10;;;;;;;8.60;2.47;;;;;;;;;;5018901;28;20422;-53
2021/12/28 13:20:36;;;;;;;10.10;2.43;;;;;;;;;;5016453;28;20399;-52
2021/12/28 13:23:03;;;;;;;4.07;1.80;;;;;;;;;;5017078;28;20491;-52
2021/12/28 13:25:29;;;;;;;11.20;3.50;;;;;;;;;;5019682;28;20395;-52
2021/12/28 13:27:56;;;;;;;11.40;2.70;;;;;;;;;;5019976;28;20923;-52
2021/12/28 13:30:25;;;;;;;9.13;2.43;;;;;;;;;;5021155;28;20399;-52
2021/12/28 13:32:52;;;;;;;16.77;2.67;;;;;;;;;;5021342;28;20408;-52
2021/12/28 13:35:20;;;;;;;16.37;3.17;;;;;;;;;;5021028;28;20461;-52
2021/12/28 13:37:48;;;;;;;10.10;3.60;;;;;;;;;;5020759;28;20419;-53
2021/12/28 13:40:17;;;;;;;15.93;3.07;;;;;;;;;;5020893;28;20418;-53
2021/12/28 13:42:45;;;;;;;27.73;4.03;;;;;;;;;;5019646;28;20480;-52
2021/12/28 13:45:12;;;;;;;12.10;3.97;;;;;;;;;;5018583;28;20407;-50
2021/12/28 13:47:39;;;;;;;22.63;3.30;;;;;;;;;;5011562;28;20419;-51
2021/12/28 13:50:06;;;;;;;9.67;3.10;;;;;;;;;;5012092;28;20407;-50
2021/12/28 13:52:42;;;;;;;22.03;4.17;;;;;;;;;;5011910;28;20417;-50
2021/12/28 13:55:09;;;;;;;21.60;4.10;;;;;;;;;;5011747;28;20466;-50
2021/12/28 13:57:35;;;;;;;21.93;3.60;;;;;;;;;;5004572;28;20440;-50
2021/12/28 14:00:01;;;;;;;11.30;3.43;;;;;;;;;;5011854;28;20810;-50
2021/12/28 14:02:27;;;;;;;16.43;3.47;;;;;;;;;;5011776;28;20403;-52
2021/12/28 14:04:53;;;;;;;10.87;3.63;;;;;;;;;;5011734;28;20407;-50
2021/12/28 14:07:19;;;;;;;18.97;3.57;;;;;;;;;;5011351;28;20436;-50
2021/12/28 14:09:46;;;;;;;14.77;4.23;;;;;;;;;;5011701;28;20415;-49
2021/12/28 14:12:12;;;;;;;13.90;4.03;;;;;;;;;;5011795;28;20421;-50
2021/12/28 14:14:46;;;;;;;16.03;4.40;;;;;;;;;;5011575;28;20557;-50
2021/12/28 14:17:14;;;;;;;20.80;4.43;;;;;;;;;;5011441;28;20764;-50
2021/12/28 14:19:44;;;;;;;14.13;4.23;;;;;;;;;;5011649;28;20423;-51
2021/12/28 14:22:11;;;;;;;17.63;4.20;;;;;;;;;;5011661;28;20403;-49
2021/12/28 14:24:42;;;;;;;12.23;3.27;;;;;;;;;;5011714;28;20470;-51
2021/12/28 14:27:08;;;;;;;13.33;3.17;;;;;;;;;;5011280;28;20499;-50
2021/12/28 14:29:35;;;;;;;16.90;3.50;;;;;;;;;;5011659;28;20494;-50
2021/12/28 14:32:07;;;;;;;23.17;4.83;;;;;;;;;;5011618;28;20479;-52
2021/12/28 14:34:36;;;;;;;18.27;3.97;;;;;;;;;;5011512;28;20484;-50
2021/12/28 14:37:02;;;;;;;18.83;3.90;;;;;;;;;;5011221;28;20426;-51
2021/12/28 14:39:33;;;;;;;15.70;4.00;;;;;;;;;;5011527;28;20425;-50
2021/12/28 14:42:08;;;;;;;24.97;3.70;;;;;;;;;;5011467;28;20403;-49
2021/12/28 14:44:35;;;;;;;16.80;3.83;;;;;;;;;;5011498;28;20453;-50